Aérodrome :
LOGIN :

S'inscrire | Disclaimer

   EN    FR    IT 

 










Légende :    VFR   VFR Marginal   IFR   IFR Intensif   IFR Très Intensif
Visi : 
Plafond : 
>= 8 km
>= 3000ft
5 à 8 km
1000 à 3000 ft
1500m à 5 km
500 à 1000 ft
800 à 1500m
200 à 500 ft
< 800m
< 200 ft
Symboles :   Orages  Brouillard  Fortes neiges  Fortes précipitations  Vent > 20 kt
SIGMETs :   Divers  Orages  Givrage  Turbulence  Onde Orograph.  Cendres Volcan.







- Altitude de l'aérodrome : 776 ft
- Code IATA : RMS


ETAR - Ramstein Air Base

DERNIER METAR :
  • 211956Z AUTO 05003KT 9999 CLR 11/03 A2996 RMK AO2 SLP147 T01080029 $

METARs EXPIRÉS :
  • 211856Z AUTO 06006KT 9999 CLR 16/03 A2997 RMK AO2 SLP150 T01560027 $
  • 211756Z AUTO 05004KT 9999 CLR 20/02 A2996 RMK AO2 SLP148 T02020016 10246 20202 57013 $

TAF TAF ETAR
Valide du 21 à 18h jusqu'au 23 à 00h UTC


211800Z 2118/2300 07009KT 9999 SKC QNH2990INS
BECMG 2209/2210 08010G20KT 9999 SKC QNH2985INS
BECMG 2217/2218 07009KT 9999 SKC QNH2970INS TX24/2215Z TN09/2203Z
Pas de NOTAMs connus pour ce terrain.



MET'MAP, la Météo Aéronautique d'un coup d'oeil ! - Copyright ORBIFLY Décembre 2007 - Disclaimer

ORBIFLY MET'MAP TEAM :

Programmation & Développement : Alexandra Zaïnal
Conception & Développement : Baudouin d'Aumeries
Co-Programmation & Développement : Marc-Olivier Méhu
Soutien technique & logistique : Manuel Goepfert

Contact : metmap@orbifly.com




SOURCES & CREDITS :

   NOAA